createdAt,value
2018-08-29T00:00:19.650Z,16.00
2018-08-29T00:02:47.871Z,16.00
2018-08-29T00:05:16.068Z,16.00
2018-08-29T00:07:49.598Z,16.00
2018-08-29T00:10:19.248Z,16.00
2018-08-29T00:12:48.523Z,15.90
2018-08-29T00:15:16.700Z,15.90
2018-08-29T00:17:44.898Z,15.90
2018-08-29T00:20:13.108Z,15.80
2018-08-29T00:22:41.322Z,15.80
2018-08-29T00:25:09.509Z,15.80
2018-08-29T00:27:37.730Z,15.80
2018-08-29T00:30:05.959Z,15.80
2018-08-29T00:32:34.135Z,15.80
2018-08-29T00:35:02.348Z,15.70
2018-08-29T00:37:30.547Z,15.70
2018-08-29T00:39:58.788Z,15.70
2018-08-29T00:42:27.052Z,15.70
2018-08-29T00:44:55.233Z,15.60
2018-08-29T00:47:23.435Z,15.60
2018-08-29T00:49:51.642Z,15.60
2018-08-29T00:52:19.903Z,15.60
2018-08-29T00:54:48.109Z,15.60
2018-08-29T00:57:16.301Z,15.60
2018-08-29T00:59:44.578Z,15.50
2018-08-29T01:02:13.773Z,15.50
2018-08-29T01:04:42.036Z,15.50
2018-08-29T01:07:10.601Z,15.50
2018-08-29T01:09:38.843Z,15.50
2018-08-29T01:12:07.059Z,15.50
2018-08-29T01:14:35.251Z,15.40
2018-08-29T01:17:03.459Z,15.40
2018-08-29T01:19:31.695Z,15.30
2018-08-29T01:21:59.955Z,15.30
2018-08-29T01:24:28.155Z,15.20
2018-08-29T01:26:56.391Z,15.20
2018-08-29T01:29:24.655Z,15.10
2018-08-29T01:31:52.853Z,15.10
2018-08-29T01:34:21.131Z,15.00
2018-08-29T01:36:49.279Z,15.10
2018-08-29T01:39:17.547Z,15.10
2018-08-29T01:41:45.789Z,15.00
2018-08-29T01:44:14.190Z,15.00
2018-08-29T01:46:42.348Z,15.00
2018-08-29T01:49:10.575Z,14.90
2018-08-29T01:51:38.777Z,14.90
2018-08-29T01:54:06.973Z,14.80
2018-08-29T01:56:35.195Z,14.80
2018-08-29T01:59:03.439Z,14.80
2018-08-29T02:01:31.647Z,14.70
2018-08-29T02:03:59.821Z,14.70
2018-08-29T02:06:28.028Z,14.70
2018-08-29T02:08:56.267Z,14.70
2018-08-29T02:11:24.441Z,14.60
2018-08-29T02:13:52.635Z,14.60
2018-08-29T02:16:20.819Z,14.60
2018-08-29T02:18:49.043Z,14.60
2018-08-29T02:21:17.217Z,14.60
2018-08-29T02:23:45.413Z,14.60
2018-08-29T02:26:13.595Z,14.60
2018-08-29T02:28:41.871Z,14.60
2018-08-29T02:31:10.055Z,14.50
2018-08-29T02:33:38.295Z,14.60
2018-08-29T02:36:06.585Z,14.60
2018-08-29T02:38:34.847Z,14.50
2018-08-29T02:41:03.582Z,14.50
2018-08-29T02:43:31.761Z,14.50
2018-08-29T02:45:59.947Z,14.50
2018-08-29T02:48:28.129Z,14.50
2018-08-29T02:50:56.789Z,14.50
2018-08-29T02:53:25.463Z,14.50
2018-08-29T02:55:53.735Z,14.50
2018-08-29T02:58:21.979Z,14.50
2018-08-29T03:00:50.244Z,14.50
2018-08-29T03:03:18.455Z,14.50
2018-08-29T03:05:46.642Z,14.40
2018-08-29T03:08:14.899Z,14.40
2018-08-29T03:10:43.080Z,14.40
2018-08-29T03:13:11.310Z,14.40
2018-08-29T03:15:39.506Z,14.30
2018-08-29T03:18:07.710Z,14.40
2018-08-29T03:24:06.888Z,14.30
2018-08-29T03:26:35.098Z,14.30
2018-08-29T03:29:03.374Z,14.30
2018-08-29T03:31:31.564Z,14.30
2018-08-29T03:34:00.046Z,14.20
2018-08-29T03:36:28.276Z,14.10
2018-08-29T03:38:56.465Z,14.10
2018-08-29T03:41:24.693Z,14.00
2018-08-29T03:43:52.917Z,14.00
2018-08-29T03:46:21.310Z,14.00
2018-08-29T03:48:49.600Z,14.00
2018-08-29T03:51:17.962Z,14.00
2018-08-29T03:53:46.142Z,14.00
2018-08-29T03:56:14.338Z,14.00
2018-08-29T03:58:42.584Z,14.00
2018-08-29T04:01:10.933Z,14.00
2018-08-29T04:03:39.168Z,13.90
2018-08-29T04:06:07.362Z,13.90
2018-08-29T04:08:35.572Z,13.80
2018-08-29T04:11:03.798Z,13.70
2018-08-29T04:13:31.994Z,13.70
2018-08-29T04:16:00.211Z,13.70
2018-08-29T04:18:28.468Z,13.70
2018-08-29T04:20:56.662Z,13.70
2018-08-29T04:23:24.854Z,13.60
2018-08-29T04:25:53.065Z,13.60
2018-08-29T04:28:21.324Z,13.60
2018-08-29T04:30:49.532Z,13.60
2018-08-29T04:33:17.718Z,13.60
2018-08-29T04:35:45.930Z,13.60
2018-08-29T04:38:14.172Z,13.50
2018-08-29T04:40:42.397Z,13.50
2018-08-29T04:43:10.596Z,13.50
2018-08-29T04:45:38.786Z,13.50
2018-08-29T04:48:07.070Z,13.50
2018-08-29T04:50:35.281Z,13.40
2018-08-29T04:53:03.490Z,13.40
2018-08-29T04:55:31.710Z,13.40
2018-08-29T04:58:00.019Z,13.40
2018-08-29T05:00:28.201Z,13.40
2018-08-29T05:02:56.378Z,13.40
2018-08-29T05:05:24.584Z,13.30
2018-08-29T05:07:52.827Z,13.30
2018-08-29T05:10:21.043Z,13.30
2018-08-29T05:12:49.257Z,13.30
2018-08-29T05:15:17.463Z,13.30
2018-08-29T05:17:45.658Z,13.30
2018-08-29T05:20:13.914Z,13.30
2018-08-29T05:22:42.126Z,13.40
2018-08-29T05:25:10.420Z,13.50
2018-08-29T05:27:38.614Z,13.50
2018-08-29T05:30:06.821Z,13.50
2018-08-29T05:32:35.023Z,13.60
2018-08-29T05:35:03.249Z,13.70
2018-08-29T05:37:31.443Z,13.70
2018-08-29T05:39:59.651Z,13.80
2018-08-29T05:42:27.857Z,13.90
2018-08-29T05:44:56.066Z,14.00
2018-08-29T05:47:24.320Z,14.10
2018-08-29T05:49:52.584Z,14.20
2018-08-29T05:52:20.764Z,14.30
2018-08-29T05:54:48.946Z,14.40
2018-08-29T05:57:17.171Z,14.50
2018-08-29T05:59:45.362Z,14.60
2018-08-29T06:02:13.580Z,14.70
2018-08-29T06:04:41.778Z,14.70
2018-08-29T06:07:09.982Z,14.80
2018-08-29T06:09:38.190Z,14.80
2018-08-29T06:12:06.674Z,14.90
2018-08-29T06:14:34.887Z,15.00
2018-08-29T06:17:03.104Z,15.10
2018-08-29T06:19:31.284Z,15.20
2018-08-29T06:21:59.508Z,15.20
2018-08-29T06:24:27.699Z,15.40
2018-08-29T06:26:56.016Z,15.50
2018-08-29T06:29:24.119Z,15.60
2018-08-29T06:31:52.287Z,15.70
2018-08-29T06:34:20.488Z,15.80
2018-08-29T06:36:48.707Z,15.90
2018-08-29T06:39:16.930Z,16.00
2018-08-29T06:41:45.081Z,16.20
2018-08-29T06:44:13.262Z,16.30
2018-08-29T06:46:41.453Z,16.40
2018-08-29T06:49:09.663Z,16.50
2018-08-29T06:51:38.601Z,16.60
2018-08-29T06:54:07.678Z,16.70
2018-08-29T06:56:35.888Z,16.80
2018-08-29T06:59:05.985Z,16.90
2018-08-29T07:01:34.178Z,17.10
2018-08-29T07:04:02.404Z,17.30
2018-08-29T07:06:30.624Z,17.40
2018-08-29T07:08:58.839Z,17.70
2018-08-29T07:11:27.055Z,18.00
2018-08-29T07:13:55.263Z,18.40
2018-08-29T07:16:23.465Z,18.70
2018-08-29T07:18:51.624Z,18.90
2018-08-29T07:21:19.798Z,19.20
2018-08-29T07:23:48.002Z,19.40
2018-08-29T07:26:16.415Z,19.70
2018-08-29T07:28:44.673Z,19.90
2018-08-29T07:31:12.861Z,20.10
2018-08-29T07:33:41.081Z,20.30
2018-08-29T07:36:09.429Z,20.50
2018-08-29T07:38:37.583Z,20.60
2018-08-29T07:41:05.802Z,20.60
2018-08-29T07:43:34.070Z,20.70
2018-08-29T07:46:02.281Z,20.80
2018-08-29T07:48:30.505Z,20.90
2018-08-29T07:50:58.703Z,21.10
2018-08-29T07:53:26.898Z,21.20
2018-08-29T07:55:55.103Z,21.50
2018-08-29T07:58:23.366Z,21.60
2018-08-29T08:00:51.644Z,21.70
2018-08-29T08:03:19.853Z,21.80
2018-08-29T08:05:48.042Z,22.00
2018-08-29T08:08:16.754Z,22.20
2018-08-29T08:10:44.741Z,22.40
2018-08-29T08:13:12.931Z,22.60
2018-08-29T08:15:41.147Z,22.80
2018-08-29T08:18:09.421Z,23.00
2018-08-29T08:20:37.598Z,23.20
2018-08-29T08:23:05.815Z,23.60
2018-08-29T08:25:34.025Z,24.10
2018-08-29T08:28:02.271Z,24.60
2018-08-29T08:30:30.469Z,25.20
2018-08-29T08:32:58.683Z,25.80
2018-08-29T08:35:26.899Z,26.40
2018-08-29T08:37:55.222Z,27.10
2018-08-29T08:40:23.487Z,27.90
2018-08-29T08:42:51.665Z,28.70
2018-08-29T08:45:19.866Z,29.40
2018-08-29T08:47:48.144Z,29.90
2018-08-29T08:50:16.293Z,30.10
2018-08-29T08:52:44.500Z,30.30
2018-08-29T08:55:12.697Z,30.70
2018-08-29T08:57:40.937Z,30.90
2018-08-29T09:00:09.175Z,31.10
2018-08-29T09:02:37.359Z,31.40
2018-08-29T09:05:05.567Z,31.40
2018-08-29T09:07:33.858Z,31.40
2018-08-29T09:10:01.986Z,31.30
2018-08-29T09:12:30.198Z,31.50
2018-08-29T09:14:58.401Z,31.50
2018-08-29T09:17:26.623Z,31.60
2018-08-29T09:19:54.807Z,31.90
2018-08-29T09:22:23.011Z,32.30
2018-08-29T09:24:51.319Z,32.80
2018-08-29T09:27:19.819Z,33.30
2018-08-29T09:29:48.067Z,33.60
2018-08-29T09:32:16.292Z,33.50
2018-08-29T09:34:44.685Z,33.30
2018-08-29T09:37:12.851Z,33.40
2018-08-29T09:39:41.079Z,33.60
2018-08-29T09:42:09.273Z,33.50
2018-08-29T09:44:37.453Z,33.30
2018-08-29T09:47:05.690Z,33.00
2018-08-29T09:49:33.925Z,33.30
2018-08-29T09:52:06.663Z,33.60
2018-08-29T09:54:34.865Z,34.00
2018-08-29T09:57:03.154Z,34.60
2018-08-29T09:59:31.243Z,35.20
2018-08-29T10:01:59.473Z,35.50
2018-08-29T10:04:28.914Z,35.90
2018-08-29T10:06:57.157Z,35.80
2018-08-29T10:09:25.367Z,35.70
2018-08-29T10:11:53.591Z,35.30
2018-08-29T10:14:21.763Z,34.90
2018-08-29T10:16:49.979Z,35.00
2018-08-29T10:19:18.191Z,35.20
2018-08-29T10:21:46.400Z,35.50
2018-08-29T10:24:14.606Z,35.90
2018-08-29T10:26:42.814Z,36.20
2018-08-29T10:29:11.001Z,36.40
2018-08-29T10:31:39.218Z,36.70
2018-08-29T10:34:07.384Z,37.30
2018-08-29T10:36:35.580Z,37.50
2018-08-29T10:39:04.149Z,38.00
2018-08-29T10:41:32.328Z,38.30
2018-08-29T10:44:00.551Z,38.90
2018-08-29T10:46:28.744Z,39.50
2018-08-29T10:48:57.006Z,39.60
2018-08-29T10:51:25.254Z,39.60
2018-08-29T10:53:53.424Z,39.60
2018-08-29T10:56:21.636Z,39.70
2018-08-29T10:58:49.822Z,39.90
2018-08-29T11:01:20.733Z,40.10
2018-08-29T11:03:48.903Z,40.10
2018-08-29T11:06:17.222Z,40.20
2018-08-29T11:08:45.453Z,40.20
2018-08-29T11:11:13.630Z,40.40
2018-08-29T11:13:41.826Z,40.30
2018-08-29T11:16:10.076Z,40.30
2018-08-29T11:18:38.247Z,40.30
2018-08-29T11:21:06.702Z,40.30
2018-08-29T11:23:34.900Z,40.70
2018-08-29T11:26:03.118Z,40.90
2018-08-29T11:28:31.482Z,40.90
2018-08-29T11:30:59.532Z,41.00
2018-08-29T11:33:27.737Z,41.20
2018-08-29T11:35:55.920Z,41.60
2018-08-29T11:38:24.150Z,41.80
2018-08-29T11:40:52.329Z,41.80
2018-08-29T11:43:20.533Z,41.60
2018-08-29T11:45:48.714Z,41.40
2018-08-29T11:48:17.131Z,41.70
2018-08-29T11:50:45.327Z,42.30
2018-08-29T11:53:13.536Z,42.90
2018-08-29T11:55:41.748Z,43.10
2018-08-29T11:58:09.986Z,43.30
2018-08-29T12:00:38.188Z,43.60
2018-08-29T12:03:06.812Z,43.80
2018-08-29T12:05:34.970Z,43.80
2018-08-29T12:08:03.297Z,43.80
2018-08-29T12:10:31.467Z,43.30
2018-08-29T12:12:59.643Z,41.90
2018-08-29T12:15:27.838Z,40.20
2018-08-29T12:17:56.289Z,38.90
2018-08-29T12:20:24.501Z,37.80
2018-08-29T12:22:52.715Z,36.90
2018-08-29T12:25:20.921Z,36.20
2018-08-29T12:27:49.128Z,35.90
2018-08-29T12:30:17.319Z,35.60
2018-08-29T12:32:45.533Z,35.60
2018-08-29T12:35:13.737Z,35.60
2018-08-29T12:37:41.927Z,35.70
2018-08-29T12:40:10.153Z,35.70
2018-08-29T12:42:38.372Z,35.80
2018-08-29T12:45:06.614Z,35.80
2018-08-29T12:47:34.804Z,35.60
2018-08-29T12:50:03.058Z,35.60
2018-08-29T12:52:31.203Z,35.70
2018-08-29T12:54:59.379Z,36.10
2018-08-29T12:57:27.582Z,37.10
2018-08-29T12:59:55.818Z,38.50
2018-08-29T13:02:24.003Z,38.80
2018-08-29T13:04:52.774Z,38.90
2018-08-29T13:07:21.028Z,39.10
2018-08-29T13:09:49.172Z,39.20
2018-08-29T13:12:17.367Z,39.70
2018-08-29T13:14:45.643Z,39.80
2018-08-29T13:17:13.783Z,39.20
2018-08-29T13:19:41.979Z,38.60
2018-08-29T13:22:10.171Z,38.00
2018-08-29T13:24:38.363Z,37.50
2018-08-29T13:27:06.571Z,37.10
2018-08-29T13:29:34.779Z,36.70
2018-08-29T13:32:03.007Z,36.40
2018-08-29T13:34:31.219Z,36.10
2018-08-29T13:36:59.443Z,35.80
2018-08-29T13:39:27.653Z,35.60
2018-08-29T13:41:55.849Z,35.30
2018-08-29T13:44:24.063Z,34.90
2018-08-29T13:46:52.359Z,34.60
2018-08-29T13:49:20.570Z,34.40
2018-08-29T13:51:48.837Z,34.30
2018-08-29T13:54:17.048Z,34.20
2018-08-29T13:56:45.231Z,34.00
2018-08-29T13:59:13.441Z,33.80
2018-08-29T14:01:41.610Z,33.60
2018-08-29T14:04:09.807Z,33.30
2018-08-29T14:06:38.017Z,32.90
2018-08-29T14:09:06.756Z,32.60
2018-08-29T14:11:34.957Z,32.50
2018-08-29T14:14:03.166Z,32.30
2018-08-29T14:16:31.369Z,32.00
2018-08-29T14:18:59.817Z,31.60
2018-08-29T14:21:28.063Z,31.10
2018-08-29T14:23:56.283Z,30.70
2018-08-29T14:26:24.548Z,30.20
2018-08-29T14:28:52.867Z,29.80
2018-08-29T14:31:21.064Z,29.40
2018-08-29T14:33:49.482Z,29.10
2018-08-29T14:36:17.573Z,28.60
2018-08-29T14:38:45.796Z,28.10
2018-08-29T14:41:13.993Z,27.20
2018-08-29T14:43:42.218Z,26.40
2018-08-29T14:46:10.524Z,25.90
2018-08-29T14:48:38.919Z,25.60
2018-08-29T14:51:07.148Z,25.40
2018-08-29T14:53:35.334Z,25.10
2018-08-29T14:56:03.698Z,25.00
2018-08-29T14:58:31.804Z,24.80
2018-08-29T15:01:12.385Z,24.70
2018-08-29T15:03:52.118Z,24.80
2018-08-29T15:06:20.311Z,24.90
2018-08-29T15:08:48.494Z,25.10
2018-08-29T15:11:16.697Z,25.30
2018-08-29T15:13:44.947Z,25.50
2018-08-29T15:16:13.162Z,25.70
2018-08-29T15:18:41.402Z,25.80
2018-08-29T15:21:09.606Z,25.80
2018-08-29T15:23:37.841Z,25.80
2018-08-29T15:26:06.359Z,25.80
2018-08-29T15:28:34.609Z,25.70
2018-08-29T15:31:02.740Z,25.50
2018-08-29T15:33:30.949Z,25.40
2018-08-29T15:35:59.169Z,25.20
2018-08-29T15:38:27.708Z,25.20
2018-08-29T15:40:55.930Z,25.00
2018-08-29T15:43:24.096Z,25.00
2018-08-29T15:45:52.327Z,24.80
2018-08-29T15:48:20.578Z,24.70
2018-08-29T15:50:48.819Z,24.60
2018-08-29T15:53:17.016Z,24.60
2018-08-29T15:55:45.193Z,24.60
2018-08-29T15:58:13.466Z,24.60
2018-08-29T16:00:41.774Z,24.50
2018-08-29T16:03:09.999Z,24.60
2018-08-29T16:05:38.221Z,24.50
2018-08-29T16:08:06.857Z,24.40
2018-08-29T16:10:35.074Z,24.30
2018-08-29T16:13:03.437Z,24.20
2018-08-29T16:15:31.752Z,24.20
2018-08-29T16:18:00.058Z,24.20
2018-08-29T16:20:28.281Z,24.30
2018-08-29T16:22:56.493Z,24.30
2018-08-29T16:25:24.740Z,24.30
2018-08-29T16:27:53.250Z,24.30
2018-08-29T16:30:21.453Z,24.30
2018-08-29T16:32:49.697Z,24.30
2018-08-29T16:35:18.198Z,24.40
2018-08-29T16:37:53.931Z,24.50
2018-08-29T16:40:22.354Z,24.50
2018-08-29T16:42:50.538Z,24.60
2018-08-29T16:45:18.770Z,24.70
2018-08-29T16:47:47.025Z,24.80
2018-08-29T16:50:15.222Z,24.80
2018-08-29T16:52:43.465Z,24.90
2018-08-29T16:55:11.653Z,25.00
2018-08-29T16:57:39.865Z,25.00
2018-08-29T17:00:08.673Z,25.10
2018-08-29T17:02:37.066Z,25.00
2018-08-29T17:05:05.288Z,25.00
2018-08-29T17:07:33.492Z,24.90
2018-08-29T17:10:01.705Z,24.90
2018-08-29T17:12:29.884Z,24.90
2018-08-29T17:14:58.190Z,24.80
2018-08-29T17:17:26.293Z,24.80
2018-08-29T17:19:54.678Z,24.70
2018-08-29T17:22:22.870Z,24.70
2018-08-29T17:24:51.048Z,24.60
2018-08-29T17:27:19.260Z,24.50
2018-08-29T17:29:47.490Z,24.40
2018-08-29T17:32:16.162Z,24.40
2018-08-29T17:34:44.370Z,24.30
2018-08-29T17:37:12.572Z,24.20
2018-08-29T17:39:40.784Z,24.10
2018-08-29T17:42:08.978Z,24.10
2018-08-29T17:44:38.227Z,24.00
2018-08-29T17:47:07.468Z,24.00
2018-08-29T17:49:50.254Z,23.90
2018-08-29T17:52:18.434Z,23.80
2018-08-29T17:54:46.642Z,23.70
2018-08-29T17:57:14.841Z,23.60
2018-08-29T17:59:43.064Z,23.50
2018-08-29T18:02:11.268Z,23.40
2018-08-29T18:04:39.458Z,23.40
2018-08-29T18:07:07.648Z,23.30
2018-08-29T18:09:35.851Z,23.30
2018-08-29T18:12:04.072Z,23.20
2018-08-29T18:14:32.275Z,23.20
2018-08-29T18:17:00.508Z,23.10
2018-08-29T18:19:28.708Z,23.10
2018-08-29T18:21:56.924Z,23.00
2018-08-29T18:24:25.123Z,23.00
2018-08-29T18:26:53.320Z,23.00
2018-08-29T18:29:21.516Z,23.00
2018-08-29T18:31:50.006Z,22.90
2018-08-29T18:34:18.258Z,23.00
2018-08-29T18:36:46.436Z,23.00
2018-08-29T18:39:14.673Z,23.00
2018-08-29T18:41:42.836Z,23.00
2018-08-29T18:44:11.226Z,22.90
2018-08-29T18:46:39.451Z,23.00
2018-08-29T18:49:07.696Z,23.00
2018-08-29T18:51:36.628Z,23.00
2018-08-29T18:54:04.880Z,23.00
2018-08-29T18:56:33.168Z,23.00
2018-08-29T18:59:01.471Z,23.00
2018-08-29T19:01:29.564Z,23.00
2018-08-29T19:03:57.888Z,23.00
2018-08-29T19:06:26.075Z,23.00
2018-08-29T19:08:54.406Z,23.00
2018-08-29T19:11:22.609Z,23.00
2018-08-29T19:13:50.804Z,22.80
2018-08-29T19:16:19.076Z,22.50
2018-08-29T19:18:47.347Z,22.10
2018-08-29T19:21:15.542Z,21.70
2018-08-29T19:23:43.771Z,21.30
2018-08-29T19:26:12.004Z,21.10
2018-08-29T19:28:40.190Z,20.90
2018-08-29T19:31:08.377Z,20.70
2018-08-29T19:33:36.594Z,20.50
2018-08-29T19:36:04.915Z,20.40
2018-08-29T19:38:33.194Z,20.40
2018-08-29T19:41:01.389Z,20.30
2018-08-29T19:43:29.594Z,20.30
2018-08-29T19:45:58.018Z,20.40
2018-08-29T19:48:26.273Z,20.50
2018-08-29T19:50:54.541Z,20.50
2018-08-29T19:53:22.737Z,20.60
2018-08-29T19:55:50.943Z,20.60
2018-08-29T19:58:19.155Z,20.60
2018-08-29T20:00:47.342Z,20.60
2018-08-29T20:03:15.530Z,20.60
2018-08-29T20:05:43.789Z,20.60
2018-08-29T20:08:11.989Z,20.60
2018-08-29T20:10:40.447Z,20.60
2018-08-29T20:13:08.629Z,20.50
2018-08-29T20:15:36.862Z,20.50
2018-08-29T20:18:05.118Z,20.40
2018-08-29T20:20:33.319Z,20.40
2018-08-29T20:23:01.513Z,20.40
2018-08-29T20:25:29.719Z,20.40
2018-08-29T20:27:58.011Z,20.40
2018-08-29T20:30:26.235Z,20.40
2018-08-29T20:32:54.640Z,20.50
2018-08-29T20:35:22.643Z,20.50
2018-08-29T20:37:50.923Z,20.50
2018-08-29T20:40:19.117Z,20.50
2018-08-29T20:42:47.317Z,20.50
2018-08-29T20:45:15.539Z,20.50
2018-08-29T20:47:43.739Z,20.50
2018-08-29T20:50:11.964Z,20.50
2018-08-29T20:52:40.158Z,20.50
2018-08-29T20:55:08.362Z,20.50
2018-08-29T20:57:36.607Z,20.50
2018-08-29T21:00:05.057Z,20.50
2018-08-29T21:02:33.261Z,20.50
2018-08-29T21:05:01.461Z,20.50
2018-08-29T21:07:29.667Z,20.40
2018-08-29T21:09:57.922Z,20.30
2018-08-29T21:12:26.195Z,20.30
2018-08-29T21:14:54.367Z,20.30
2018-08-29T21:17:22.604Z,20.20
2018-08-29T21:19:50.958Z,20.20
2018-08-29T21:22:19.143Z,20.20
2018-08-29T21:24:47.339Z,20.30
2018-08-29T21:27:26.775Z,20.30
2018-08-29T21:30:06.303Z,20.30
2018-08-29T21:36:55.087Z,20.30
2018-08-29T21:39:23.375Z,20.30
2018-08-29T21:41:52.153Z,20.20
2018-08-29T21:44:34.092Z,20.10
2018-08-29T21:47:13.714Z,20.10
2018-08-29T21:51:54.413Z,20.10
2018-08-29T21:54:32.088Z,20.00
2018-08-29T21:57:11.459Z,19.90
2018-08-29T21:59:50.097Z,19.90
2018-08-29T22:04:34.859Z,19.90
2018-08-29T22:07:03.121Z,19.90
2018-08-29T22:09:31.314Z,19.80
2018-08-29T22:11:59.521Z,19.70
2018-08-29T22:14:27.800Z,19.70
2018-08-29T22:16:55.913Z,19.70
2018-08-29T22:19:24.185Z,19.70
2018-08-29T22:21:52.407Z,19.70
2018-08-29T22:24:20.624Z,19.70
2018-08-29T22:26:48.832Z,19.70
2018-08-29T22:29:17.135Z,19.70
2018-08-29T22:31:45.311Z,19.70
2018-08-29T22:34:13.504Z,19.70
2018-08-29T22:36:41.699Z,19.60
2018-08-29T22:39:09.966Z,19.60
2018-08-29T22:41:38.143Z,19.60
2018-08-29T22:44:06.517Z,19.60
2018-08-29T22:46:34.729Z,19.60
2018-08-29T22:49:02.951Z,19.60
2018-08-29T22:51:31.163Z,19.50
2018-08-29T22:53:59.379Z,19.60
2018-08-29T22:56:27.571Z,19.60
2018-08-29T22:58:55.796Z,19.50
2018-08-29T23:01:23.981Z,19.60
2018-08-29T23:03:52.206Z,19.60
2018-08-29T23:06:20.400Z,19.60
2018-08-29T23:08:48.685Z,19.60
2018-08-29T23:11:16.887Z,19.60
2018-08-29T23:13:45.081Z,19.60
2018-08-29T23:16:13.306Z,19.60
2018-08-29T23:18:41.510Z,19.50
2018-08-29T23:21:09.700Z,19.50
2018-08-29T23:23:37.889Z,19.50
2018-08-29T23:26:06.069Z,19.50
2018-08-29T23:28:34.374Z,19.50
2018-08-29T23:31:02.565Z,19.50
2018-08-29T23:33:30.743Z,19.40
2018-08-29T23:35:58.924Z,19.40
2018-08-29T23:38:27.148Z,19.40
2018-08-29T23:40:55.380Z,19.30
2018-08-29T23:43:23.556Z,19.20
2018-08-29T23:45:51.738Z,19.20
2018-08-29T23:48:19.956Z,19.10
2018-08-29T23:50:48.165Z,19.10
2018-08-29T23:53:16.382Z,19.10
2018-08-29T23:55:44.548Z,19.10
2018-08-29T23:58:12.794Z,19.10
